Thunderstorms From: 25-05-2018 05:05 Until: 26-05-2018 05:00 warning for: Thunderstorms Level: Yellow info button

Although rather usual in this region, locally or potentially dangerous phenomena are expected. (such as local winds, summer thunderstorms, rising streams or high waves) Be aware and pay attention to the latest weather updates, especially if you carry out activities exposed to weather or close to a stream or shoreline. 


Meteo18 Weather Cam more information Meteo18 Weather Cam


warning for Thunderstorms more information blitzortung!


Rain radar more information rain snow radar


Visit our other weather sites:

Template documentation
and downloads

And another site



Weather Underground History page Text

Daily Summary for February 3, 2017 Units:  English    Metric   Both
« Previous Day
Next Day »
Daily Weekly Monthly Yearly Custom
  High: Low: Average:
Temperature: TemperatureC °F 4.0 °F 7.1 °F
Dew Point: DewpointC °F 3.2 °F 5.2 °F
Humidity: Humidity % 76 % 87 %
Wind Speed: WindSpeedKMH mph 0.0 mph 12.1 mph
Wind Gust: WindSpeedGustKMH mph - -
Wind:- - SSW
Pressure: PressurehPa in 1001.9 in -
Precipitation: 2.5 in    
Historical Graphs
 
 
Tabular Data for February 3, 2017
Time Temperature Dew Point Pressure Wind Wind Speed Wind Gust Humidity Rainfall Rate (Hourly)
TemperatureC °F DewpointC °F PressurehPa in Calm     Humidity % HourlyPrecipMM in
00:02 7.9 °F 7.0 °F 1007.3 in SSW 9.7 mph 12.9 mph 94 % 0.3 in
00:07 7.9 °F 7.0 °F 1007.3 in SSW 11.3 mph 14.5 mph 94 % 0.3 in
00:12 7.9 °F 7.0 °F 1007.3 in SW 12.9 mph 14.5 mph 94 % 0.3 in
00:17 7.8 °F 6.9 °F 1007.7 in SSW 8.0 mph 16.1 mph 94 % 0.3 in
00:22 7.8 °F 6.9 °F 1007.7 in SSW 12.9 mph 16.1 mph 94 % 0.3 in
00:27 7.8 °F 6.9 °F 1007.7 in SSW 9.7 mph 16.1 mph 94 % 0.3 in
00:32 7.8 °F 6.9 °F 1007.7 in SW 8.0 mph 17.7 mph 94 % 0.3 in
00:37 7.8 °F 6.9 °F 1007.7 in SW 8.0 mph 17.7 mph 94 % 0.3 in
00:42 7.8 °F 6.9 °F 1007.7 in SW 17.7 mph 17.7 mph 94 % 0.5 in
00:47 7.8 °F 6.9 °F 1008.0 in SSW 8.0 mph 17.7 mph 94 % 0.3 in
00:52 7.8 °F 6.9 °F 1008.0 in SW 11.3 mph 17.7 mph 94 % 0.3 in
00:57 7.8 °F 6.9 °F 1008.0 in SW 12.9 mph 17.7 mph 94 % 0.3 in
01:02 7.8 °F 6.9 °F 1008.0 in SSW 9.7 mph 19.3 mph 94 % 0.3 in
01:07 7.8 °F 6.9 °F 1008.0 in SW 8.0 mph 19.3 mph 94 % 0.3 in
01:12 7.8 °F 6.9 °F 1008.0 in SSW 12.9 mph 19.3 mph 94 % 0.3 in
01:17 7.8 °F 6.9 °F 1008.0 in SSW 9.7 mph 17.7 mph 94 % 0.3 in
01:22 7.7 °F 6.8 °F 1008.0 in SSW 9.7 mph 17.7 mph 94 % 0.3 in
01:27 7.7 °F 6.8 °F 1008.0 in SSW 12.9 mph 17.7 mph 94 % 0.3 in
01:32 7.7 °F 6.8 °F 1008.0 in SW 11.3 mph 16.1 mph 94 % 0.3 in
01:37 7.7 °F 6.8 °F 1008.0 in SW 12.9 mph 17.7 mph 94 % 0.3 in
01:42 7.7 °F 6.8 °F 1008.0 in SW 6.4 mph 17.7 mph 94 % 0.0 in
01:47 7.7 °F 6.8 °F 1008.0 in South 11.3 mph 17.7 mph 94 % 0.0 in
01:52 7.7 °F 6.8 °F 1008.0 in SSW 11.3 mph 17.7 mph 94 % 0.0 in
01:57 7.7 °F 6.8 °F 1008.0 in SW 16.1 mph 17.7 mph 94 % 0.0 in
02:02 7.8 °F 6.9 °F 1008.0 in SW 17.7 mph 20.9 mph 94 % 0.0 in
02:07 7.8 °F 6.9 °F 1008.4 in SSW 11.3 mph 20.9 mph 94 % 0.0 in
02:12 7.8 °F 6.7 °F 1008.0 in SW 17.7 mph 20.9 mph 93 % 0.0 in
02:17 7.8 °F 6.7 °F 1008.0 in SW 11.3 mph 20.9 mph 93 % 0.0 in
02:22 7.9 °F 6.8 °F 1008.0 in SW 14.5 mph 22.5 mph 93 % 0.0 in
02:27 7.9 °F 6.8 °F 1008.0 in SSW 9.7 mph 22.5 mph 93 % 0.0 in
02:32 7.8 °F 6.7 °F 1008.0 in SSW 12.9 mph 24.1 mph 93 % 0.0 in
02:37 7.8 °F 6.7 °F 1008.0 in SSW 9.7 mph 24.1 mph 93 % 0.0 in
02:42 7.8 °F 6.7 °F 1008.0 in SSW 9.7 mph 20.9 mph 93 % 0.0 in
02:47 7.8 °F 6.7 °F 1007.7 in SSW 9.7 mph 19.3 mph 93 % 0.0 in
02:52 7.8 °F 6.7 °F 1008.0 in SW 11.3 mph 19.3 mph 93 % 0.0 in
03:02 7.8 °F 6.6 °F 1007.7 in SSW 9.7 mph 19.3 mph 92 % 0.0 in
03:07 7.9 °F 6.7 °F 1007.7 in SW 9.7 mph 19.3 mph 92 % 0.0 in
03:12 7.9 °F 6.5 °F 1007.7 in SW 16.1 mph 20.9 mph 91 % 0.0 in
03:17 8.0 °F 6.6 °F 1007.7 in SW 8.0 mph 20.9 mph 91 % 0.0 in
03:22 7.9 °F 6.5 °F 1007.7 in SW 11.3 mph 20.9 mph 91 % 0.0 in
03:27 8.0 °F 6.6 °F 1007.7 in SW 16.1 mph 22.5 mph 91 % 0.0 in
03:32 8.0 °F 6.6 °F 1007.7 in South 1.6 mph 22.5 mph 91 % 0.0 in
03:37 8.0 °F 6.6 °F 1007.7 in SW 9.7 mph 22.5 mph 91 % 0.0 in
03:42 7.9 °F 6.7 °F 1008.0 in SW 8.0 mph 19.3 mph 92 % 0.0 in
03:47 7.9 °F 6.7 °F 1008.0 in SSW 12.9 mph 19.3 mph 92 % 0.0 in
03:52 7.8 °F 6.6 °F 1008.0 in SW 14.5 mph 19.3 mph 92 % 0.0 in
03:57 7.7 °F 6.6 °F 1007.7 in SSW 8.0 mph 19.3 mph 93 % 0.0 in
04:02 7.7 °F 6.5 °F 1008.0 in SW 11.3 mph 19.3 mph 92 % 0.0 in
04:07 7.7 °F 6.5 °F 1007.7 in SW 11.3 mph 19.3 mph 92 % 0.0 in
04:12 7.7 °F 6.5 °F 1008.0 in SW 8.0 mph 19.3 mph 92 % 0.0 in
04:17 7.6 °F 6.4 °F 1008.0 in SSW 8.0 mph 19.3 mph 92 % 0.0 in
04:22 7.7 °F 6.5 °F 1008.0 in SSW 16.1 mph 19.3 mph 92 % 0.0 in
04:27 7.8 °F 6.4 °F 1008.0 in SSW 16.1 mph 20.9 mph 91 % 0.0 in
04:32 7.8 °F 6.4 °F 1008.0 in SW 17.7 mph 20.9 mph 91 % 0.0 in
04:37 7.8 °F 6.3 °F 1008.0 in SSW 4.8 mph 22.5 mph 90 % 0.0 in
04:42 7.8 °F 6.3 °F 1008.0 in SW 17.7 mph 22.5 mph 90 % 0.0 in
04:47 7.8 °F 6.3 °F 1008.0 in SW 19.3 mph 24.1 mph 90 % 0.0 in
04:52 7.7 °F 6.2 °F 1008.0 in SW 16.1 mph 24.1 mph 90 % 0.0 in
04:57 7.6 °F 6.1 °F 1008.4 in SW 14.5 mph 24.1 mph 90 % 0.0 in
05:02 7.5 °F 6.0 °F 1008.4 in SW 4.8 mph 20.9 mph 90 % 0.0 in
05:12 7.3 °F 5.9 °F 1008.4 in SW 12.9 mph 20.9 mph 91 % 0.0 in
05:17 7.3 °F 5.8 °F 1008.4 in SW 6.4 mph 19.3 mph 90 % 0.0 in
05:22 7.3 °F 5.8 °F 1008.0 in SW 9.7 mph 19.3 mph 90 % 0.0 in
05:27 7.2 °F 5.7 °F 1008.0 in SSW 9.7 mph 19.3 mph 90 % 0.0 in
05:32 6.9 °F 5.5 °F 1008.0 in SSW 6.4 mph 17.7 mph 91 % 0.0 in
05:37 6.7 °F 5.3 °F 1008.4 in SSW 4.8 mph 17.7 mph 91 % 0.0 in
05:42 6.5 °F 5.1 °F 1008.4 in SSW 6.4 mph 17.7 mph 91 % 0.0 in
05:47 6.3 °F 5.1 °F 1008.4 in SSW 11.3 mph 14.5 mph 92 % 0.0 in
05:52 6.3 °F 5.1 °F 1008.4 in SSW 9.7 mph 14.5 mph 92 % 0.0 in
05:57 6.2 °F 5.0 °F 1008.4 in SW 6.4 mph 12.9 mph 92 % 0.0 in
06:02 6.2 °F 5.2 °F 1008.4 in SSW 9.7 mph 12.9 mph 93 % 0.0 in
06:07 6.2 °F 5.2 °F 1008.4 in SW 11.3 mph 14.5 mph 93 % 0.0 in
06:12 6.3 °F 5.3 °F 1008.4 in SSW 8.0 mph 14.5 mph 93 % 0.0 in
06:17 6.3 °F 5.3 °F 1008.4 in SW 6.4 mph 16.1 mph 93 % 0.0 in
06:22 6.2 °F 5.2 °F 1008.4 in SSW 6.4 mph 16.1 mph 93 % 0.0 in
06:27 6.2 °F 5.2 °F 1008.4 in SSW 3.2 mph 12.9 mph 93 % 0.0 in
06:32 6.1 °F 5.1 °F 1008.4 in SSW 4.8 mph 11.3 mph 93 % 0.0 in
06:37 6.0 °F 5.0 °F 1008.4 in SSW 4.8 mph 9.7 mph 93 % 0.0 in
06:42 5.9 °F 4.9 °F 1008.4 in SW 3.2 mph 9.7 mph 93 % 0.0 in
06:52 5.7 °F 4.7 °F 1008.4 in SSW 4.8 mph 9.7 mph 93 % 0.0 in
06:57 5.6 °F 4.6 °F 1008.4 in South 1.6 mph 9.7 mph 93 % 0.0 in
07:02 5.4 °F 4.4 °F 1008.0 in SSW 1.6 mph 6.4 mph 93 % 0.0 in
07:07 5.3 °F 4.3 °F 1008.0 in South 3.2 mph 6.4 mph 93 % 0.0 in
07:12 5.2 °F 4.2 °F 1008.0 in South 1.6 mph 6.4 mph 93 % 0.0 in
07:17 5.1 °F 4.1 °F 1008.0 in Calm   6.4 mph 93 % 0.0 in
07:22 4.9 °F 3.9 °F 1008.0 in Calm   6.4 mph 93 % 0.0 in
07:27 4.8 °F 3.9 °F 1007.7 in SSE 1.6 mph 3.2 mph 94 % 0.0 in
07:32 4.8 °F 3.9 °F 1007.7 in Calm   6.4 mph 94 % 0.0 in
07:37 4.7 °F 3.8 °F 1007.7 in Calm   6.4 mph 94 % 0.0 in
07:42 4.6 °F 3.7 °F 1007.7 in Calm   4.8 mph 94 % 0.0 in
07:47 4.4 °F 3.5 °F 1007.7 in Calm   1.6 mph 94 % 0.0 in
07:52 4.3 °F 3.4 °F 1007.7 in Calm   1.6 mph 94 % 0.0 in
07:57 4.1 °F 3.2 °F 1007.7 in SSE 1.6 mph 1.6 mph 94 % 0.0 in
08:02 4.1 °F 3.4 °F 1007.7 in SE 3.2 mph 3.2 mph 95 % 0.0 in
08:12 4.1 °F 3.4 °F 1007.7 in Calm   6.4 mph 95 % 0.0 in
08:17 4.1 °F 3.4 °F 1007.7 in SE 3.2 mph 6.4 mph 95 % 0.0 in
08:22 4.0 °F 3.3 °F 1007.7 in SE 1.6 mph 4.8 mph 95 % 0.0 in
08:27 4.0 °F 3.3 °F 1007.7 in Calm   4.8 mph 95 % 0.0 in
08:32 4.1 °F 3.5 °F 1007.3 in East 3.2 mph 8.0 mph 96 % 0.0 in
08:37 4.1 °F 3.5 °F 1007.3 in SE 1.6 mph 8.0 mph 96 % 0.0 in
08:42 4.1 °F 3.4 °F 1007.3 in Calm   8.0 mph 95 % 0.0 in
08:47 4.2 °F 3.5 °F 1007.3 in ESE 3.2 mph 8.0 mph 95 % 0.0 in
08:52 4.3 °F 3.6 °F 1007.3 in SE 1.6 mph 8.0 mph 95 % 0.0 in
09:02 4.7 °F 4.0 °F 1007.0 in SE 1.6 mph 8.0 mph 95 % 0.0 in
09:07 4.9 °F 4.2 °F 1007.0 in South 4.8 mph 8.0 mph 95 % 0.0 in
09:12 5.2 °F 4.3 °F 1007.0 in SE 6.4 mph 8.0 mph 94 % 0.0 in
09:17 5.3 °F 4.3 °F 1007.0 in SSE 3.2 mph 12.9 mph 93 % 0.0 in
09:22 5.5 °F 4.3 °F 1007.0 in South 4.8 mph 12.9 mph 92 % 0.0 in
09:32 5.9 °F 4.5 °F 1007.0 in SE 3.2 mph 19.3 mph 91 % 0.0 in
09:37 6.1 °F 4.6 °F 1007.0 in SSE 6.4 mph 19.3 mph 90 % 0.0 in
09:42 6.1 °F 4.6 °F 1006.7 in SSE 11.3 mph 16.1 mph 90 % 0.0 in
09:47 6.3 °F 4.6 °F 1006.7 in SW 9.7 mph 17.7 mph 89 % 0.0 in
09:52 6.4 °F 4.7 °F 1007.0 in SSE 9.7 mph 17.7 mph 89 % 0.0 in
09:57 6.6 °F 4.8 °F 1007.0 in South 4.8 mph 17.7 mph 88 % 0.0 in
10:02 6.6 °F 4.8 °F 1007.0 in South 14.5 mph 16.1 mph 88 % 0.0 in
10:07 6.7 °F 4.9 °F 1007.0 in SSE 9.7 mph 17.7 mph 88 % 0.0 in
10:12 6.8 °F 5.0 °F 1007.0 in South 14.5 mph 17.7 mph 88 % 0.0 in
10:17 6.9 °F 4.9 °F 1007.0 in SSE 9.7 mph 20.9 mph 87 % 0.0 in
10:22 7.1 °F 5.1 °F 1007.0 in ESE 14.5 mph 20.9 mph 87 % 0.0 in
10:27 7.3 °F 5.1 °F 1006.7 in SSE 14.5 mph 20.9 mph 86 % 0.0 in
10:32 7.5 °F 5.3 °F 1006.7 in ESE 9.7 mph 17.7 mph 86 % 0.0 in
10:37 7.7 °F 5.2 °F 1006.7 in SSE 9.7 mph 17.7 mph 84 % 0.0 in
10:42 7.9 °F 5.5 °F 1006.7 in SE 6.4 mph 19.3 mph 85 % 0.0 in
10:52 7.9 °F 4.8 °F 1006.3 in South 11.3 mph 17.7 mph 81 % 0.0 in
10:57 7.9 °F 5.0 °F 1006.3 in ESE 9.7 mph 22.5 mph 82 % 0.0 in
11:02 8.1 °F 5.2 °F 1006.3 in ESE 6.4 mph 22.5 mph 82 % 0.0 in
11:07 8.2 °F 5.1 °F 1006.0 in South 4.8 mph 19.3 mph 81 % 0.0 in
11:12 8.5 °F 5.4 °F 1006.0 in SSE 9.7 mph 20.9 mph 81 % 0.0 in
11:17 8.5 °F 5.2 °F 1006.0 in SSE 9.7 mph 20.9 mph 80 % 0.0 in
11:22 8.4 °F 4.8 °F 1006.0 in SSW 11.3 mph 20.9 mph 78 % 0.0 in
11:27 8.4 °F 5.0 °F 1006.0 in ESE 12.9 mph 20.9 mph 79 % 0.0 in
11:32 8.4 °F 5.0 °F 1006.0 in ESE 6.4 mph 20.9 mph 79 % 0.0 in
11:37 8.7 °F 5.3 °F 1005.6 in SSE 12.9 mph 20.9 mph 79 % 0.0 in
11:42 8.7 °F 5.3 °F 1005.6 in SSE 4.8 mph 22.5 mph 79 % 0.0 in
11:47 8.7 °F 4.9 °F 1005.3 in South 11.3 mph 22.5 mph 77 % 0.0 in
11:52 8.5 °F 4.5 °F 1005.0 in SE 6.4 mph 22.5 mph 76 % 0.0 in
11:57 8.4 °F 4.6 °F 1005.0 in SE 6.4 mph 22.5 mph 77 % 0.0 in
12:02 8.3 °F 4.5 °F 1005.0 in SSE 1.6 mph 22.5 mph 77 % 0.0 in
12:07 8.3 °F 4.7 °F 1005.0 in South 8.0 mph 19.3 mph 78 % 0.0 in
12:12 8.4 °F 4.8 °F 1005.0 in SW 3.2 mph 17.7 mph 78 % 0.0 in
12:17 8.4 °F 4.8 °F 1005.0 in SE 6.4 mph 17.7 mph 78 % 0.0 in
12:22 8.4 °F 4.8 °F 1005.0 in SSW 3.2 mph 17.7 mph 78 % 0.0 in
12:27 8.5 °F 4.7 °F 1005.0 in SSW 4.8 mph 12.9 mph 77 % 0.0 in
12:32 8.6 °F 5.0 °F 1005.0 in SSE 4.8 mph 17.7 mph 78 % 0.0 in
12:42 8.7 °F 5.3 °F 1005.0 in South 9.7 mph 16.1 mph 79 % 0.0 in
12:47 8.7 °F 5.3 °F 1005.0 in South 6.4 mph 16.1 mph 79 % 0.0 in
12:57 8.8 °F 5.2 °F 1005.0 in SSW 12.9 mph 19.3 mph 78 % 0.0 in
13:02 8.8 °F 4.8 °F 1005.0 in SSW 19.3 mph 24.1 mph 76 % 0.0 in
13:07 8.8 °F 4.8 °F 1005.0 in SSW 22.5 mph 33.8 mph 76 % 0.0 in
13:12 8.6 °F 4.6 °F 1004.6 in SW 35.4 mph 35.4 mph 76 % 0.0 in
13:17 8.4 °F 5.0 °F 1004.6 in South 19.3 mph 35.4 mph 79 % 0.0 in
13:22 8.2 °F 4.4 °F 1004.6 in SW 43.4 mph 43.4 mph 77 % 0.0 in
13:27 7.8 °F 4.4 °F 1004.6 in SSW 29.0 mph 49.9 mph 79 % 0.5 in
13:32 7.5 °F 4.6 °F 1004.3 in SSW 30.6 mph 49.9 mph 82 % 0.5 in
13:37 7.2 °F 4.3 °F 1004.3 in SSW 35.4 mph 49.9 mph 82 % 0.8 in
13:42 7.1 °F 4.4 °F 1004.3 in SSW 9.7 mph 46.7 mph 83 % 1.3 in
13:47 6.9 °F 4.6 °F 1003.9 in SSE 9.7 mph 40.2 mph 85 % 1.3 in
13:52 7.1 °F 4.6 °F 1003.9 in South 16.1 mph 40.2 mph 84 % 1.5 in
13:57 7.2 °F 4.8 °F 1003.6 in SSE 6.4 mph 32.2 mph 85 % 1.5 in
14:02 7.2 °F 4.7 °F 1003.6 in SSE 8.0 mph 32.2 mph 84 % 1.5 in
14:07 7.2 °F 4.7 °F 1003.6 in SSW 14.5 mph 30.6 mph 84 % 1.5 in
14:12 7.1 °F 4.7 °F 1003.3 in SSE 9.7 mph 37.0 mph 85 % 1.5 in
14:17 7.1 °F 4.9 °F 1003.6 in SSE 11.3 mph 37.0 mph 86 % 1.5 in
14:22 6.9 °F 4.9 °F 1003.3 in SSE 14.5 mph 37.0 mph 87 % 1.3 in
14:32 6.8 °F 5.0 °F 1002.9 in ESE 8.0 mph 25.7 mph 88 % 1.3 in
14:37 6.9 °F 5.1 °F 1002.6 in SSE 4.8 mph 20.9 mph 88 % 0.8 in
14:42 6.9 °F 5.1 °F 1002.6 in SE 4.8 mph 19.3 mph 88 % 0.5 in
14:47 6.8 °F 5.0 °F 1002.6 in SSE 12.9 mph 19.3 mph 88 % 0.5 in
14:52 6.9 °F 5.1 °F 1002.6 in SE 4.8 mph 19.3 mph 88 % 0.5 in
14:57 6.9 °F 5.1 °F 1002.3 in ESE 9.7 mph 17.7 mph 88 % 0.5 in
15:02 6.9 °F 5.1 °F 1002.3 in ESE 9.7 mph 17.7 mph 88 % 0.5 in
15:07 6.9 °F 5.2 °F 1002.3 in SE 6.4 mph 17.7 mph 89 % 0.5 in
15:12 6.9 °F 5.1 °F 1002.3 in SSW 8.0 mph 19.3 mph 88 % 0.5 in
15:17 7.0 °F 5.1 °F 1002.3 in SE 6.4 mph 19.3 mph 88 % 0.5 in
15:22 7.1 °F 5.2 °F 1002.3 in South 12.9 mph 17.7 mph 88 % 0.5 in
15:27 7.2 °F 5.2 °F 1002.3 in SSW 6.4 mph 25.7 mph 87 % 0.5 in
15:32 7.2 °F 5.2 °F 1002.3 in South 11.3 mph 25.7 mph 87 % 0.3 in
15:37 7.3 °F 5.1 °F 1002.3 in South 8.0 mph 24.1 mph 86 % 0.3 in
15:42 7.4 °F 5.2 °F 1002.3 in SSE 6.4 mph 29.0 mph 86 % 0.3 in
15:47 7.4 °F 5.2 °F 1002.3 in SSE 6.4 mph 29.0 mph 86 % 0.3 in
15:52 7.5 °F 5.3 °F 1002.3 in SW 11.3 mph 29.0 mph 86 % 0.3 in
16:02 8.1 °F 5.6 °F 1002.3 in SSE 16.1 mph 32.2 mph 84 % 0.3 in
16:07 8.3 °F 5.6 °F 1002.3 in SSE 16.1 mph 35.4 mph 83 % 0.3 in
16:12 8.4 °F 5.7 °F 1002.3 in SW 25.7 mph 35.4 mph 83 % 0.0 in
16:17 8.5 °F 5.8 °F 1001.9 in SSW 12.9 mph 32.2 mph 83 % 0.0 in
16:22 8.5 °F 5.6 °F 1001.9 in SSW 24.1 mph 35.4 mph 82 % 0.0 in
16:27 8.4 °F 5.7 °F 1002.3 in SSW 30.6 mph 35.4 mph 83 % 0.0 in
16:32 8.3 °F 5.9 °F 1002.3 in South 24.1 mph 33.8 mph 85 % 0.0 in
16:37 8.2 °F 6.0 °F 1002.3 in SSW 27.4 mph 46.7 mph 86 % 0.0 in
16:42 8.1 °F 6.1 °F 1002.3 in SSW 12.9 mph 46.7 mph 87 % 0.0 in
16:47 8.1 °F 6.1 °F 1002.3 in SSW 17.7 mph 46.7 mph 87 % 0.0 in
16:52 8.1 °F 5.9 °F 1002.3 in SSW 20.9 mph 38.6 mph 86 % 0.0 in
16:57 8.2 °F 6.0 °F 1002.3 in SSW 11.3 mph 33.8 mph 86 % 0.0 in
17:02 8.3 °F 6.1 °F 1002.3 in SW 25.7 mph 33.8 mph 86 % 0.0 in
17:07 8.4 °F 6.0 °F 1002.3 in SSW 20.9 mph 32.2 mph 85 % 0.0 in
17:12 8.6 °F 6.0 °F 1002.3 in SW 19.3 mph 35.4 mph 84 % 0.0 in
17:17 8.6 °F 6.0 °F 1002.6 in SW 25.7 mph 35.4 mph 84 % 0.0 in
17:22 8.8 °F 6.2 °F 1002.3 in SW 27.4 mph 35.4 mph 84 % 0.0 in
17:27 9.1 °F 5.8 °F 1002.6 in SW 27.4 mph 51.5 mph 80 % 0.3 in
17:32 9.2 °F 5.7 °F 1002.9 in WSW 37.0 mph 51.5 mph 79 % 0.3 in
17:37 9.1 °F 5.8 °F 1002.6 in SW 22.5 mph 51.5 mph 80 % 0.3 in
17:42 9.1 °F 6.0 °F 1002.9 in SW 20.9 mph 49.9 mph 81 % 0.3 in
17:47 8.9 °F 5.8 °F 1002.9 in SW 33.8 mph 49.9 mph 81 % 0.3 in
17:52 8.9 °F 5.8 °F 1003.3 in SW 24.1 mph 51.5 mph 81 % 0.3 in
17:57 8.9 °F 5.8 °F 1003.3 in SW 33.8 mph 51.5 mph 81 % 0.3 in
18:02 8.9 °F 5.6 °F 1003.3 in SSW 22.5 mph 41.8 mph 80 % 0.3 in
18:07 8.9 °F 5.6 °F 1003.6 in SSW 17.7 mph 46.7 mph 80 % 0.3 in
18:12 8.8 °F 5.7 °F 1003.6 in WSW 30.6 mph 46.7 mph 81 % 0.3 in
18:17 8.6 °F 5.5 °F 1003.6 in SW 20.9 mph 43.4 mph 81 % 0.3 in
18:22 8.5 °F 5.6 °F 1003.9 in SW 20.9 mph 43.4 mph 82 % 0.3 in
18:27 8.4 °F 5.5 °F 1003.9 in SSW 25.7 mph 49.9 mph 82 % 0.0 in
18:32 8.4 °F 5.5 °F 1004.3 in SW 32.2 mph 49.9 mph 82 % 0.0 in
18:42 8.3 °F 5.4 °F 1003.9 in SW 20.9 mph 43.4 mph 82 % 0.0 in
18:47 8.2 °F 5.5 °F 1004.3 in SW 24.1 mph 37.0 mph 83 % 0.0 in
18:52 8.2 °F 5.7 °F 1004.6 in SW 17.7 mph 35.4 mph 84 % 0.0 in
18:57 8.0 °F 5.6 °F 1004.6 in WSW 11.3 mph 45.1 mph 85 % 0.0 in
19:02 7.9 °F 5.5 °F 1004.6 in WSW 22.5 mph 45.1 mph 85 % 0.0 in
19:07 8.0 °F 5.5 °F 1005.0 in SW 20.9 mph 41.8 mph 84 % 0.0 in
19:12 7.9 °F 5.4 °F 1005.0 in SW 27.4 mph 35.4 mph 84 % 0.0 in
19:17 7.9 °F 5.2 °F 1005.0 in WSW 25.7 mph 35.4 mph 83 % 0.0 in
19:22 7.9 °F 5.0 °F 1005.3 in WSW 24.1 mph 38.6 mph 82 % 0.0 in
19:27 7.8 °F 4.9 °F 1005.3 in WSW 38.6 mph 38.6 mph 82 % 0.0 in
19:32 7.8 °F 4.9 °F 1005.6 in SW 9.7 mph 51.5 mph 82 % 0.0 in
19:37 7.8 °F 4.9 °F 1005.6 in SW 19.3 mph 51.5 mph 82 % 0.0 in
19:42 7.8 °F 4.9 °F 1005.6 in SSW 25.7 mph 51.5 mph 82 % 0.0 in
19:47 7.7 °F 5.0 °F 1006.0 in SW 9.7 mph 43.4 mph 83 % 0.0 in
19:52 7.6 °F 4.9 °F 1006.0 in SW 16.1 mph 43.4 mph 83 % 0.0 in
19:57 7.7 °F 4.8 °F 1006.0 in SW 22.5 mph 33.8 mph 82 % 0.3 in
20:02 7.7 °F 4.8 °F 1006.3 in SSW 19.3 mph 29.0 mph 82 % 0.3 in
20:07 7.7 °F 4.8 °F 1006.3 in SW 17.7 mph 30.6 mph 82 % 0.3 in
20:17 7.7 °F 4.8 °F 1006.7 in SW 25.7 mph 30.6 mph 82 % 0.3 in
20:22 7.6 °F 4.9 °F 1006.7 in SW 27.4 mph 32.2 mph 83 % 0.3 in
20:27 7.4 °F 4.9 °F 1006.7 in SW 17.7 mph 33.8 mph 84 % 0.3 in
20:32 7.3 °F 4.8 °F 1006.7 in SW 17.7 mph 33.8 mph 84 % 0.3 in
20:37 7.3 °F 4.8 °F 1006.7 in SW 22.5 mph 33.8 mph 84 % 0.3 in
20:42 7.4 °F 4.7 °F 1007.0 in WSW 24.1 mph 29.0 mph 83 % 0.3 in
20:47 7.5 °F 4.8 °F 1007.0 in SW 12.9 mph 32.2 mph 83 % 0.3 in
20:57 7.4 °F 4.9 °F 1007.3 in SSW 11.3 mph 32.2 mph 84 % 0.0 in
21:02 7.2 °F 4.8 °F 1007.3 in SW 8.0 mph 27.4 mph 85 % 0.0 in
21:07 7.1 °F 4.9 °F 1007.3 in SW 17.7 mph 24.1 mph 86 % 0.0 in
21:12 6.9 °F 4.7 °F 1007.0 in SW 17.7 mph 24.1 mph 86 % 0.0 in
21:17 6.9 °F 4.7 °F 1007.0 in South 9.7 mph 25.7 mph 86 % 0.0 in
21:22 6.7 °F 4.5 °F 1006.7 in SW 8.0 mph 25.7 mph 86 % 0.0 in
21:27 6.5 °F 4.3 °F 1006.7 in SW 16.1 mph 25.7 mph 86 % 0.0 in
21:32 6.4 °F 4.4 °F 1006.7 in SW 14.5 mph 22.5 mph 87 % 0.0 in
21:37 6.3 °F 4.5 °F 1006.7 in SSW 11.3 mph 20.9 mph 88 % 0.0 in
21:42 6.1 °F 4.3 °F 1006.7 in SSW 8.0 mph 20.9 mph 88 % 0.0 in
21:47 5.8 °F 4.1 °F 1006.7 in SSW 4.8 mph 20.9 mph 89 % 0.0 in
21:52 5.8 °F 4.3 °F 1006.7 in SSW 8.0 mph 16.1 mph 90 % 0.0 in
21:57 5.9 °F 4.2 °F 1006.7 in SW 11.3 mph 12.9 mph 89 % 0.0 in
22:02 5.9 °F 4.2 °F 1006.7 in SSW 4.8 mph 14.5 mph 89 % 0.0 in
22:07 5.8 °F 4.1 °F 1006.7 in SSE 4.8 mph 14.5 mph 89 % 0.0 in
22:12 5.6 °F 3.9 °F 1006.7 in SW 9.7 mph 14.5 mph 89 % 0.0 in
22:17 5.5 °F 4.0 °F 1006.7 in South 14.5 mph 14.5 mph 90 % 0.0 in
22:27 5.4 °F 3.9 °F 1006.7 in SSW 12.9 mph 17.7 mph 90 % 0.0 in
22:32 5.4 °F 3.9 °F 1006.7 in SSW 9.7 mph 17.7 mph 90 % 0.0 in
22:37 5.3 °F 3.8 °F 1006.7 in SSW 8.0 mph 17.7 mph 90 % 0.0 in
22:42 5.3 °F 3.8 °F 1006.7 in SSW 14.5 mph 17.7 mph 90 % 0.0 in
22:47 5.3 °F 3.8 °F 1006.7 in SSW 11.3 mph 17.7 mph 90 % 0.0 in
22:52 5.2 °F 3.7 °F 1006.7 in SW 12.9 mph 17.7 mph 90 % 0.0 in
22:57 5.3 °F 3.8 °F 1006.7 in SSW 11.3 mph 22.5 mph 90 % 0.0 in
23:02 5.2 °F 3.7 °F 1006.3 in SW 11.3 mph 22.5 mph 90 % 0.0 in
23:07 5.2 °F 3.9 °F 1006.3 in SSW 11.3 mph 22.5 mph 91 % 0.0 in
23:12 5.2 °F 3.7 °F 1006.3 in SSW 12.9 mph 17.7 mph 90 % 0.0 in
23:17 5.3 °F 3.6 °F 1006.3 in SSW 11.3 mph 17.7 mph 89 % 0.0 in
23:22 5.4 °F 3.7 °F 1006.7 in SSW 9.7 mph 22.5 mph 89 % 0.0 in
23:32 5.2 °F 3.5 °F 1006.7 in SSW 9.7 mph 20.9 mph 89 % 0.0 in
23:37 5.2 °F 3.5 °F 1006.3 in South 12.9 mph 17.7 mph 89 % 0.0 in
23:42 5.2 °F 3.5 °F 1006.3 in South 9.7 mph 17.7 mph 89 % 0.0 in
23:47 5.1 °F 3.4 °F 1006.3 in SSE 3.2 mph 17.7 mph 89 % 0.0 in
23:52 5.1 °F 3.4 °F 1006.3 in South 4.8 mph 17.7 mph 89 % 0.0 in
23:57 4.9 °F 3.2 °F 1006.3 in South 4.8 mph 12.9 mph 89 % 0.0 in
Meteo18
Compliments of Weather Underground - 4 mb

Script developed by  Jim McMurry - jmcmurry@mwt.net Adapted for the template by  Wim van der Kuil - Leuven-Template.eu

You find our weather info also at:

European Weather Network

Weather Underground

Equipment we use:

Weather-station
Davis Vue

Weather-program
Meteobridge

Weather-server
Raspberry PI 2 B+

Provider
1 and 1

Davis Vue

Meteobridge

Raspberry PI 2 B+

1 and 1